sensor_id;sensor_type;location;lat;lon;timestamp;P1;durP1;ratioP1;P2;durP2;ratioP2
63005;SDS011;53704;52.532;6.426;2023-04-29T00:00:21;54.28;;;34.47;;
63005;SDS011;53704;52.532;6.426;2023-04-29T00:02:46;56.97;;;35.28;;
63005;SDS011;53704;52.532;6.426;2023-04-29T00:05:11;56.13;;;35.72;;
63005;SDS011;53704;52.532;6.426;2023-04-29T00:07:37;56.28;;;34.15;;
63005;SDS011;53704;52.532;6.426;2023-04-29T00:10:03;59.22;;;34.05;;
63005;SDS011;53704;52.532;6.426;2023-04-29T00:12:28;51.67;;;33.33;;
63005;SDS011;53704;52.532;6.426;2023-04-29T00:14:55;52.17;;;32.75;;
63005;SDS011;53704;52.532;6.426;2023-04-29T00:17:21;50.13;;;33.22;;
63005;SDS011;53704;52.532;6.426;2023-04-29T00:19:46;51.70;;;33.42;;
63005;SDS011;53704;52.532;6.426;2023-04-29T00:22:12;56.67;;;33.17;;
63005;SDS011;53704;52.532;6.426;2023-04-29T00:24:38;52.03;;;31.45;;
63005;SDS011;53704;52.532;6.426;2023-04-29T00:27:03;50.30;;;31.50;;
63005;SDS011;53704;52.532;6.426;2023-04-29T00:29:30;46.35;;;32.38;;
63005;SDS011;53704;52.532;6.426;2023-04-29T00:31:55;48.55;;;31.55;;
63005;SDS011;53704;52.532;6.426;2023-04-29T00:34:21;48.45;;;30.23;;
63005;SDS011;53704;52.532;6.426;2023-04-29T00:36:46;40.10;;;28.70;;
63005;SDS011;53704;52.532;6.426;2023-04-29T00:39:12;49.80;;;32.58;;
63005;SDS011;53704;52.532;6.426;2023-04-29T00:41:37;49.70;;;32.53;;
63005;SDS011;53704;52.532;6.426;2023-04-29T00:44:03;52.38;;;32.00;;
63005;SDS011;53704;52.532;6.426;2023-04-29T00:46:28;43.67;;;29.48;;
63005;SDS011;53704;52.532;6.426;2023-04-29T00:48:54;45.80;;;30.42;;
63005;SDS011;53704;52.532;6.426;2023-04-29T00:51:20;46.38;;;29.27;;
63005;SDS011;53704;52.532;6.426;2023-04-29T00:53:45;43.80;;;28.52;;
63005;SDS011;53704;52.532;6.426;2023-04-29T00:56:11;46.53;;;30.90;;
63005;SDS011;53704;52.532;6.426;2023-04-29T00:58:39;48.95;;;30.40;;
63005;SDS011;53704;52.532;6.426;2023-04-29T01:01:04;57.47;;;30.42;;
63005;SDS011;53704;52.532;6.426;2023-04-29T01:03:30;47.85;;;30.80;;
63005;SDS011;53704;52.532;6.426;2023-04-29T01:06:08;40.00;;;29.90;;
63005;SDS011;53704;52.532;6.426;2023-04-29T01:11:13;45.67;;;30.60;;
63005;SDS011;53704;52.532;6.426;2023-04-29T01:13:48;44.78;;;30.02;;
63005;SDS011;53704;52.532;6.426;2023-04-29T01:19:49;47.40;;;29.83;;
63005;SDS011;53704;52.532;6.426;2023-04-29T01:21:58;50.63;;;29.35;;
63005;SDS011;53704;52.532;6.426;2023-04-29T01:24:23;52.47;;;31.15;;
63005;SDS011;53704;52.532;6.426;2023-04-29T01:26:56;40.53;;;28.08;;
63005;SDS011;53704;52.532;6.426;2023-04-29T01:37:51;40.85;;;26.80;;
63005;SDS011;53704;52.532;6.426;2023-04-29T01:40:24;41.15;;;27.48;;
63005;SDS011;53704;52.532;6.426;2023-04-29T01:43:00;48.50;;;27.08;;
63005;SDS011;53704;52.532;6.426;2023-04-29T01:45:28;37.47;;;26.47;;
63005;SDS011;53704;52.532;6.426;2023-04-29T01:47:56;43.20;;;26.83;;
63005;SDS011;53704;52.532;6.426;2023-04-29T01:50:23;37.28;;;26.52;;
63005;SDS011;53704;52.532;6.426;2023-04-29T01:52:48;41.00;;;26.02;;
63005;SDS011;53704;52.532;6.426;2023-04-29T01:55:14;44.47;;;26.02;;
63005;SDS011;53704;52.532;6.426;2023-04-29T01:57:40;44.65;;;25.48;;
63005;SDS011;53704;52.532;6.426;2023-04-29T02:00:05;46.97;;;26.42;;
63005;SDS011;53704;52.532;6.426;2023-04-29T02:02:33;40.45;;;25.30;;
63005;SDS011;53704;52.532;6.426;2023-04-29T02:04:58;40.70;;;27.58;;
63005;SDS011;53704;52.532;6.426;2023-04-29T02:07:24;40.92;;;25.63;;
63005;SDS011;53704;52.532;6.426;2023-04-29T02:09:49;37.20;;;25.17;;
63005;SDS011;53704;52.532;6.426;2023-04-29T02:12:15;38.17;;;26.00;;
63005;SDS011;53704;52.532;6.426;2023-04-29T02:14:41;40.25;;;25.35;;
63005;SDS011;53704;52.532;6.426;2023-04-29T02:17:06;38.17;;;25.00;;
63005;SDS011;53704;52.532;6.426;2023-04-29T02:19:31;47.30;;;25.70;;
63005;SDS011;53704;52.532;6.426;2023-04-29T02:21:57;43.92;;;25.35;;
63005;SDS011;53704;52.532;6.426;2023-04-29T02:24:23;37.92;;;24.73;;
63005;SDS011;53704;52.532;6.426;2023-04-29T02:26:48;45.92;;;26.10;;
63005;SDS011;53704;52.532;6.426;2023-04-29T02:29:13;41.63;;;25.83;;
63005;SDS011;53704;52.532;6.426;2023-04-29T02:31:39;51.25;;;27.05;;
63005;SDS011;53704;52.532;6.426;2023-04-29T02:34:04;40.97;;;25.27;;
63005;SDS011;53704;52.532;6.426;2023-04-29T02:36:30;42.20;;;24.75;;
63005;SDS011;53704;52.532;6.426;2023-04-29T02:38:55;43.58;;;25.42;;
63005;SDS011;53704;52.532;6.426;2023-04-29T02:41:24;46.00;;;26.05;;
63005;SDS011;53704;52.532;6.426;2023-04-29T02:43:50;43.80;;;26.52;;
63005;SDS011;53704;52.532;6.426;2023-04-29T02:46:15;45.63;;;25.65;;
63005;SDS011;53704;52.532;6.426;2023-04-29T02:48:41;41.75;;;26.80;;
63005;SDS011;53704;52.532;6.426;2023-04-29T02:51:07;49.92;;;27.73;;
63005;SDS011;53704;52.532;6.426;2023-04-29T02:53:32;41.47;;;26.55;;
63005;SDS011;53704;52.532;6.426;2023-04-29T02:55:57;47.33;;;27.17;;
63005;SDS011;53704;52.532;6.426;2023-04-29T02:58:26;45.75;;;26.52;;
63005;SDS011;53704;52.532;6.426;2023-04-29T03:00:52;42.28;;;27.60;;
63005;SDS011;53704;52.532;6.426;2023-04-29T03:03:17;50.40;;;26.60;;
63005;SDS011;53704;52.532;6.426;2023-04-29T03:05:43;48.38;;;28.17;;
63005;SDS011;53704;52.532;6.426;2023-04-29T03:08:08;50.55;;;29.30;;
63005;SDS011;53704;52.532;6.426;2023-04-29T03:10:34;52.33;;;27.25;;
63005;SDS011;53704;52.532;6.426;2023-04-29T03:13:00;46.58;;;28.60;;
63005;SDS011;53704;52.532;6.426;2023-04-29T03:15:25;49.65;;;29.13;;
63005;SDS011;53704;52.532;6.426;2023-04-29T03:17:51;63.65;;;29.92;;
63005;SDS011;53704;52.532;6.426;2023-04-29T03:20:16;51.25;;;27.92;;
63005;SDS011;53704;52.532;6.426;2023-04-29T03:22:41;55.92;;;27.85;;
63005;SDS011;53704;52.532;6.426;2023-04-29T03:25:07;47.88;;;25.88;;
63005;SDS011;53704;52.532;6.426;2023-04-29T03:27:34;50.13;;;27.88;;
63005;SDS011;53704;52.532;6.426;2023-04-29T03:30:00;53.20;;;28.42;;
63005;SDS011;53704;52.532;6.426;2023-04-29T03:32:26;42.88;;;26.52;;
63005;SDS011;53704;52.532;6.426;2023-04-29T03:34:52;54.38;;;26.65;;
63005;SDS011;53704;52.532;6.426;2023-04-29T03:37:17;51.42;;;27.73;;
63005;SDS011;53704;52.532;6.426;2023-04-29T03:39:42;55.72;;;26.45;;
63005;SDS011;53704;52.532;6.426;2023-04-29T03:42:10;42.92;;;26.98;;
63005;SDS011;53704;52.532;6.426;2023-04-29T03:44:36;53.58;;;25.48;;
63005;SDS011;53704;52.532;6.426;2023-04-29T03:47:01;49.40;;;27.40;;
63005;SDS011;53704;52.532;6.426;2023-04-29T03:49:27;56.28;;;29.85;;
63005;SDS011;53704;52.532;6.426;2023-04-29T03:51:52;47.08;;;26.48;;
63005;SDS011;53704;52.532;6.426;2023-04-29T03:54:18;52.22;;;26.83;;
63005;SDS011;53704;52.532;6.426;2023-04-29T03:56:44;48.80;;;27.02;;
63005;SDS011;53704;52.532;6.426;2023-04-29T03:59:09;52.55;;;27.92;;
63005;SDS011;53704;52.532;6.426;2023-04-29T04:01:34;58.90;;;27.90;;
63005;SDS011;53704;52.532;6.426;2023-04-29T04:04:00;52.90;;;28.50;;
63005;SDS011;53704;52.532;6.426;2023-04-29T04:06:25;47.65;;;26.95;;
63005;SDS011;53704;52.532;6.426;2023-04-29T04:08:51;58.65;;;27.00;;
63005;SDS011;53704;52.532;6.426;2023-04-29T04:11:16;43.42;;;24.95;;
63005;SDS011;53704;52.532;6.426;2023-04-29T04:13:42;52.70;;;26.83;;
63005;SDS011;53704;52.532;6.426;2023-04-29T04:16:08;48.25;;;26.85;;
63005;SDS011;53704;52.532;6.426;2023-04-29T04:18:35;55.42;;;24.17;;
63005;SDS011;53704;52.532;6.426;2023-04-29T04:21:05;49.70;;;25.48;;
63005;SDS011;53704;52.532;6.426;2023-04-29T04:23:34;48.03;;;25.85;;
63005;SDS011;53704;52.532;6.426;2023-04-29T04:26:00;41.15;;;22.35;;
63005;SDS011;53704;52.532;6.426;2023-04-29T04:28:25;50.08;;;25.65;;
63005;SDS011;53704;52.532;6.426;2023-04-29T04:30:51;35.72;;;22.33;;
63005;SDS011;53704;52.532;6.426;2023-04-29T04:33:16;42.83;;;24.33;;
63005;SDS011;53704;52.532;6.426;2023-04-29T04:35:42;37.90;;;23.75;;
63005;SDS011;53704;52.532;6.426;2023-04-29T04:38:07;54.15;;;26.42;;
63005;SDS011;53704;52.532;6.426;2023-04-29T04:40:35;40.28;;;24.60;;
63005;SDS011;53704;52.532;6.426;2023-04-29T04:43:00;44.55;;;23.17;;
63005;SDS011;53704;52.532;6.426;2023-04-29T04:45:29;50.58;;;24.75;;
63005;SDS011;53704;52.532;6.426;2023-04-29T04:47:55;42.88;;;25.48;;
63005;SDS011;53704;52.532;6.426;2023-04-29T04:50:21;39.38;;;21.75;;
63005;SDS011;53704;52.532;6.426;2023-04-29T04:52:46;43.08;;;23.48;;
63005;SDS011;53704;52.532;6.426;2023-04-29T04:55:11;39.92;;;23.38;;
63005;SDS011;53704;52.532;6.426;2023-04-29T04:57:37;45.92;;;23.92;;
63005;SDS011;53704;52.532;6.426;2023-04-29T05:00:02;43.63;;;23.33;;
63005;SDS011;53704;52.532;6.426;2023-04-29T05:02:29;38.03;;;24.88;;
63005;SDS011;53704;52.532;6.426;2023-04-29T05:04:54;44.67;;;23.25;;
63005;SDS011;53704;52.532;6.426;2023-04-29T05:07:20;46.97;;;24.55;;
63005;SDS011;53704;52.532;6.426;2023-04-29T05:09:46;38.67;;;24.77;;
63005;SDS011;53704;52.532;6.426;2023-04-29T05:12:12;37.60;;;23.27;;
63005;SDS011;53704;52.532;6.426;2023-04-29T05:14:37;40.65;;;23.02;;
63005;SDS011;53704;52.532;6.426;2023-04-29T05:17:02;45.58;;;24.00;;
63005;SDS011;53704;52.532;6.426;2023-04-29T05:19:28;46.47;;;23.40;;
63005;SDS011;53704;52.532;6.426;2023-04-29T05:21:54;47.28;;;23.52;;
63005;SDS011;53704;52.532;6.426;2023-04-29T05:24:19;36.42;;;22.75;;
63005;SDS011;53704;52.532;6.426;2023-04-29T05:26:45;47.53;;;23.52;;
63005;SDS011;53704;52.532;6.426;2023-04-29T05:29:11;41.20;;;22.35;;
63005;SDS011;53704;52.532;6.426;2023-04-29T05:31:36;39.30;;;22.38;;
63005;SDS011;53704;52.532;6.426;2023-04-29T05:34:02;41.50;;;22.42;;
63005;SDS011;53704;52.532;6.426;2023-04-29T05:36:28;40.85;;;22.63;;
63005;SDS011;53704;52.532;6.426;2023-04-29T05:38:54;35.90;;;23.15;;
63005;SDS011;53704;52.532;6.426;2023-04-29T05:41:19;34.60;;;21.63;;
63005;SDS011;53704;52.532;6.426;2023-04-29T05:43:45;40.92;;;21.85;;
63005;SDS011;53704;52.532;6.426;2023-04-29T05:46:10;39.17;;;21.10;;
63005;SDS011;53704;52.532;6.426;2023-04-29T05:48:36;36.83;;;21.15;;
63005;SDS011;53704;52.532;6.426;2023-04-29T05:51:01;45.25;;;22.08;;
63005;SDS011;53704;52.532;6.426;2023-04-29T05:53:27;42.45;;;21.23;;
63005;SDS011;53704;52.532;6.426;2023-04-29T05:55:55;50.78;;;21.13;;
63005;SDS011;53704;52.532;6.426;2023-04-29T05:58:20;43.25;;;18.85;;
63005;SDS011;53704;52.532;6.426;2023-04-29T06:00:47;36.70;;;20.70;;
63005;SDS011;53704;52.532;6.426;2023-04-29T06:03:13;42.97;;;20.75;;
63005;SDS011;53704;52.532;6.426;2023-04-29T06:05:39;36.08;;;19.48;;
63005;SDS011;53704;52.532;6.426;2023-04-29T06:08:04;39.63;;;20.15;;
63005;SDS011;53704;52.532;6.426;2023-04-29T06:10:30;37.25;;;19.88;;
63005;SDS011;53704;52.532;6.426;2023-04-29T06:12:57;38.55;;;19.95;;
63005;SDS011;53704;52.532;6.426;2023-04-29T06:15:22;45.05;;;20.73;;
63005;SDS011;53704;52.532;6.426;2023-04-29T06:17:48;42.35;;;19.77;;
63005;SDS011;53704;52.532;6.426;2023-04-29T06:20:13;34.78;;;20.95;;
63005;SDS011;53704;52.532;6.426;2023-04-29T06:22:39;36.42;;;19.23;;
63005;SDS011;53704;52.532;6.426;2023-04-29T06:25:07;39.53;;;19.05;;
63005;SDS011;53704;52.532;6.426;2023-04-29T06:27:33;39.63;;;19.05;;
63005;SDS011;53704;52.532;6.426;2023-04-29T06:29:58;32.05;;;18.23;;
63005;SDS011;53704;52.532;6.426;2023-04-29T06:32:24;30.95;;;17.45;;
63005;SDS011;53704;52.532;6.426;2023-04-29T06:34:50;29.63;;;19.15;;
63005;SDS011;53704;52.532;6.426;2023-04-29T06:37:15;37.97;;;19.40;;
63005;SDS011;53704;52.532;6.426;2023-04-29T06:39:40;30.50;;;17.63;;
63005;SDS011;53704;52.532;6.426;2023-04-29T06:42:06;27.42;;;17.67;;
63005;SDS011;53704;52.532;6.426;2023-04-29T06:44:31;36.70;;;17.50;;
63005;SDS011;53704;52.532;6.426;2023-04-29T06:46:57;30.67;;;17.35;;
63005;SDS011;53704;52.532;6.426;2023-04-29T06:49:22;26.33;;;17.98;;
63005;SDS011;53704;52.532;6.426;2023-04-29T06:51:48;31.73;;;17.10;;
63005;SDS011;53704;52.532;6.426;2023-04-29T06:54:13;28.63;;;16.50;;
63005;SDS011;53704;52.532;6.426;2023-04-29T06:56:38;29.92;;;16.45;;
63005;SDS011;53704;52.532;6.426;2023-04-29T06:59:04;31.63;;;16.38;;
63005;SDS011;53704;52.532;6.426;2023-04-29T07:01:29;24.35;;;14.50;;
63005;SDS011;53704;52.532;6.426;2023-04-29T07:03:55;26.90;;;15.27;;
63005;SDS011;53704;52.532;6.426;2023-04-29T07:06:21;27.33;;;13.90;;
63005;SDS011;53704;52.532;6.426;2023-04-29T07:08:46;23.60;;;13.98;;
63005;SDS011;53704;52.532;6.426;2023-04-29T07:11:12;24.50;;;15.02;;
63005;SDS011;53704;52.532;6.426;2023-04-29T07:13:40;29.15;;;15.90;;
63005;SDS011;53704;52.532;6.426;2023-04-29T07:16:13;20.35;;;13.90;;
63005;SDS011;53704;52.532;6.426;2023-04-29T07:18:43;26.67;;;13.57;;
63005;SDS011;53704;52.532;6.426;2023-04-29T07:21:08;28.65;;;13.35;;
63005;SDS011;53704;52.532;6.426;2023-04-29T07:23:33;22.60;;;12.98;;
63005;SDS011;53704;52.532;6.426;2023-04-29T07:26:07;27.48;;;13.65;;
63005;SDS011;53704;52.532;6.426;2023-04-29T07:28:40;21.10;;;13.38;;
63005;SDS011;53704;52.532;6.426;2023-04-29T07:31:06;21.45;;;13.85;;
63005;SDS011;53704;52.532;6.426;2023-04-29T07:33:32;21.73;;;12.82;;
63005;SDS011;53704;52.532;6.426;2023-04-29T07:35:58;23.15;;;13.68;;
63005;SDS011;53704;52.532;6.426;2023-04-29T07:38:24;19.13;;;12.30;;
63005;SDS011;53704;52.532;6.426;2023-04-29T07:40:50;19.10;;;12.80;;
63005;SDS011;53704;52.532;6.426;2023-04-29T07:43:15;16.83;;;12.32;;
63005;SDS011;53704;52.532;6.426;2023-04-29T07:45:41;18.80;;;13.25;;
63005;SDS011;53704;52.532;6.426;2023-04-29T07:48:06;24.65;;;12.75;;
63005;SDS011;53704;52.532;6.426;2023-04-29T07:50:35;21.73;;;13.35;;
63005;SDS011;53704;52.532;6.426;2023-04-29T07:53:01;22.08;;;13.35;;
63005;SDS011;53704;52.532;6.426;2023-04-29T07:55:27;22.30;;;12.88;;
63005;SDS011;53704;52.532;6.426;2023-04-29T07:57:56;20.60;;;12.95;;
63005;SDS011;53704;52.532;6.426;2023-04-29T08:00:22;16.65;;;11.80;;
63005;SDS011;53704;52.532;6.426;2023-04-29T08:02:51;21.05;;;13.02;;
63005;SDS011;53704;52.532;6.426;2023-04-29T08:05:17;20.98;;;12.32;;
63005;SDS011;53704;52.532;6.426;2023-04-29T08:07:43;17.20;;;11.63;;
63005;SDS011;53704;52.532;6.426;2023-04-29T08:10:08;17.85;;;11.82;;
63005;SDS011;53704;52.532;6.426;2023-04-29T08:12:34;20.15;;;11.93;;
63005;SDS011;53704;52.532;6.426;2023-04-29T08:14:59;17.02;;;11.50;;
63005;SDS011;53704;52.532;6.426;2023-04-29T08:17:25;18.95;;;12.15;;
63005;SDS011;53704;52.532;6.426;2023-04-29T08:19:50;15.20;;;11.10;;
63005;SDS011;53704;52.532;6.426;2023-04-29T08:22:16;16.98;;;10.50;;
63005;SDS011;53704;52.532;6.426;2023-04-29T08:24:41;22.92;;;12.23;;
63005;SDS011;53704;52.532;6.426;2023-04-29T08:27:06;23.02;;;10.90;;
63005;SDS011;53704;52.532;6.426;2023-04-29T08:29:32;18.05;;;11.30;;
63005;SDS011;53704;52.532;6.426;2023-04-29T08:31:59;15.18;;;11.43;;
63005;SDS011;53704;52.532;6.426;2023-04-29T08:34:24;19.33;;;10.93;;
63005;SDS011;53704;52.532;6.426;2023-04-29T08:36:50;14.13;;;10.02;;
63005;SDS011;53704;52.532;6.426;2023-04-29T08:39:16;17.92;;;9.95;;
63005;SDS011;53704;52.532;6.426;2023-04-29T08:41:44;22.13;;;10.43;;
63005;SDS011;53704;52.532;6.426;2023-04-29T08:44:15;14.55;;;9.68;;
63005;SDS011;53704;52.532;6.426;2023-04-29T08:46:42;12.40;;;9.77;;
63005;SDS011;53704;52.532;6.426;2023-04-29T08:49:09;17.90;;;11.38;;
63005;SDS011;53704;52.532;6.426;2023-04-29T08:51:35;10.65;;;8.80;;
63005;SDS011;53704;52.532;6.426;2023-04-29T08:54:01;19.70;;;8.93;;
63005;SDS011;53704;52.532;6.426;2023-04-29T08:56:26;14.45;;;9.18;;
63005;SDS011;53704;52.532;6.426;2023-04-29T08:58:54;17.15;;;9.48;;
63005;SDS011;53704;52.532;6.426;2023-04-29T09:01:22;14.63;;;9.40;;
63005;SDS011;53704;52.532;6.426;2023-04-29T09:06:20;14.48;;;8.80;;
63005;SDS011;53704;52.532;6.426;2023-04-29T09:08:45;12.50;;;9.10;;
63005;SDS011;53704;52.532;6.426;2023-04-29T09:11:11;14.40;;;8.90;;
63005;SDS011;53704;52.532;6.426;2023-04-29T09:13:38;15.60;;;8.73;;
63005;SDS011;53704;52.532;6.426;2023-04-29T09:16:03;13.88;;;8.70;;
63005;SDS011;53704;52.532;6.426;2023-04-29T09:18:46;12.48;;;8.95;;
63005;SDS011;53704;52.532;6.426;2023-04-29T09:23:41;11.65;;;9.10;;
63005;SDS011;53704;52.532;6.426;2023-04-29T09:26:07;13.02;;;9.07;;
63005;SDS011;53704;52.532;6.426;2023-04-29T09:28:32;16.67;;;8.95;;
63005;SDS011;53704;52.532;6.426;2023-04-29T09:30:58;17.05;;;9.55;;
63005;SDS011;53704;52.532;6.426;2023-04-29T09:33:23;11.00;;;8.48;;
63005;SDS011;53704;52.532;6.426;2023-04-29T09:35:52;9.60;;;8.35;;
63005;SDS011;53704;52.532;6.426;2023-04-29T09:38:18;10.18;;;7.97;;
63005;SDS011;53704;52.532;6.426;2023-04-29T09:40:45;8.20;;;7.40;;
63005;SDS011;53704;52.532;6.426;2023-04-29T09:43:12;10.45;;;7.68;;
63005;SDS011;53704;52.532;6.426;2023-04-29T09:45:40;10.13;;;8.25;;
63005;SDS011;53704;52.532;6.426;2023-04-29T09:48:08;12.68;;;8.20;;
63005;SDS011;53704;52.532;6.426;2023-04-29T09:50:34;14.13;;;7.57;;
63005;SDS011;53704;52.532;6.426;2023-04-29T09:53:04;10.32;;;7.00;;
63005;SDS011;53704;52.532;6.426;2023-04-29T09:55:33;11.00;;;6.93;;
63005;SDS011;53704;52.532;6.426;2023-04-29T09:58:31;9.48;;;6.43;;
63005;SDS011;53704;52.532;6.426;2023-04-29T10:01:01;12.73;;;6.95;;
63005;SDS011;53704;52.532;6.426;2023-04-29T10:03:32;9.68;;;7.38;;
63005;SDS011;53704;52.532;6.426;2023-04-29T10:05:59;9.65;;;6.85;;
63005;SDS011;53704;52.532;6.426;2023-04-29T10:08:27;9.88;;;6.65;;
63005;SDS011;53704;52.532;6.426;2023-04-29T10:10:55;7.68;;;7.00;;
63005;SDS011;53704;52.532;6.426;2023-04-29T10:13:24;7.40;;;6.25;;
63005;SDS011;53704;52.532;6.426;2023-04-29T10:15:59;10.30;;;6.57;;
63005;SDS011;53704;52.532;6.426;2023-04-29T10:18:36;8.00;;;5.63;;
63005;SDS011;53704;52.532;6.426;2023-04-29T10:21:05;8.43;;;5.45;;
63005;SDS011;53704;52.532;6.426;2023-04-29T10:23:35;8.35;;;6.15;;
63005;SDS011;53704;52.532;6.426;2023-04-29T10:26:02;6.18;;;5.63;;
63005;SDS011;53704;52.532;6.426;2023-04-29T10:28:31;7.18;;;5.32;;
63005;SDS011;53704;52.532;6.426;2023-04-29T10:31:00;5.93;;;5.07;;
63005;SDS011;53704;52.532;6.426;2023-04-29T10:33:32;7.57;;;5.68;;
63005;SDS011;53704;52.532;6.426;2023-04-29T10:36:00;9.10;;;5.47;;
63005;SDS011;53704;52.532;6.426;2023-04-29T10:38:34;11.50;;;5.65;;
63005;SDS011;53704;52.532;6.426;2023-04-29T10:41:07;6.22;;;5.63;;
63005;SDS011;53704;52.532;6.426;2023-04-29T10:43:38;10.35;;;5.82;;
63005;SDS011;53704;52.532;6.426;2023-04-29T10:46:15;19.15;;;5.47;;
63005;SDS011;53704;52.532;6.426;2023-04-29T10:48:44;8.35;;;5.20;;
63005;SDS011;53704;52.532;6.426;2023-04-29T10:59:22;17.05;;;6.05;;
63005;SDS011;53704;52.532;6.426;2023-04-29T11:02:06;10.82;;;5.40;;
63005;SDS011;53704;52.532;6.426;2023-04-29T11:04:31;8.75;;;5.60;;
63005;SDS011;53704;52.532;6.426;2023-04-29T11:06:57;7.88;;;4.82;;
63005;SDS011;53704;52.532;6.426;2023-04-29T11:09:28;6.05;;;5.18;;
63005;SDS011;53704;52.532;6.426;2023-04-29T11:11:56;7.53;;;5.30;;
63005;SDS011;53704;52.532;6.426;2023-04-29T11:14:37;11.40;;;5.13;;
63005;SDS011;53704;52.532;6.426;2023-04-29T11:17:07;4.85;;;4.55;;
63005;SDS011;53704;52.532;6.426;2023-04-29T11:19:41;5.25;;;4.65;;
63005;SDS011;53704;52.532;6.426;2023-04-29T11:22:12;5.78;;;5.18;;
63005;SDS011;53704;52.532;6.426;2023-04-29T11:25:09;7.65;;;4.90;;
63005;SDS011;53704;52.532;6.426;2023-04-29T11:27:38;10.27;;;4.43;;
63005;SDS011;53704;52.532;6.426;2023-04-29T11:30:06;7.00;;;4.90;;
63005;SDS011;53704;52.532;6.426;2023-04-29T11:32:33;6.68;;;4.43;;
63005;SDS011;53704;52.532;6.426;2023-04-29T11:35:07;4.82;;;4.20;;
63005;SDS011;53704;52.532;6.426;2023-04-29T11:37:37;5.95;;;4.53;;
63005;SDS011;53704;52.532;6.426;2023-04-29T11:40:04;5.40;;;4.60;;
63005;SDS011;53704;52.532;6.426;2023-04-29T11:42:32;8.65;;;4.70;;
63005;SDS011;53704;52.532;6.426;2023-04-29T11:45:11;6.35;;;5.03;;
63005;SDS011;53704;52.532;6.426;2023-04-29T11:47:37;6.18;;;4.55;;
63005;SDS011;53704;52.532;6.426;2023-04-29T11:50:08;8.43;;;4.70;;
63005;SDS011;53704;52.532;6.426;2023-04-29T11:52:34;8.05;;;5.47;;
63005;SDS011;53704;52.532;6.426;2023-04-29T11:55:02;9.25;;;4.65;;
63005;SDS011;53704;52.532;6.426;2023-04-29T11:57:29;9.55;;;3.55;;
63005;SDS011;53704;52.532;6.426;2023-04-29T11:59:58;5.03;;;4.60;;
63005;SDS011;53704;52.532;6.426;2023-04-29T12:02:30;5.35;;;3.80;;
63005;SDS011;53704;52.532;6.426;2023-04-29T12:04:57;8.45;;;4.20;;
63005;SDS011;53704;52.532;6.426;2023-04-29T12:07:25;4.47;;;3.08;;
63005;SDS011;53704;52.532;6.426;2023-04-29T12:09:50;4.93;;;2.85;;
63005;SDS011;53704;52.532;6.426;2023-04-29T12:12:16;11.05;;;3.45;;
63005;SDS011;53704;52.532;6.426;2023-04-29T12:14:41;4.72;;;4.15;;
63005;SDS011;53704;52.532;6.426;2023-04-29T12:17:08;4.68;;;3.92;;
63005;SDS011;53704;52.532;6.426;2023-04-29T12:19:34;5.50;;;3.97;;
63005;SDS011;53704;52.532;6.426;2023-04-29T12:22:02;9.32;;;4.10;;
63005;SDS011;53704;52.532;6.426;2023-04-29T12:24:32;11.20;;;4.88;;
63005;SDS011;53704;52.532;6.426;2023-04-29T12:27:02;6.75;;;4.20;;
63005;SDS011;53704;52.532;6.426;2023-04-29T12:29:27;7.57;;;4.28;;
63005;SDS011;53704;52.532;6.426;2023-04-29T12:31:54;6.53;;;4.45;;
63005;SDS011;53704;52.532;6.426;2023-04-29T12:34:23;4.95;;;3.72;;
63005;SDS011;53704;52.532;6.426;2023-04-29T12:36:56;5.38;;;4.60;;
63005;SDS011;53704;52.532;6.426;2023-04-29T12:39:24;7.13;;;3.83;;
63005;SDS011;53704;52.532;6.426;2023-04-29T12:41:53;4.80;;;3.85;;
63005;SDS011;53704;52.532;6.426;2023-04-29T12:44:24;4.40;;;4.00;;
63005;SDS011;53704;52.532;6.426;2023-04-29T12:46:50;18.00;;;4.57;;
63005;SDS011;53704;52.532;6.426;2023-04-29T12:49:19;6.97;;;4.13;;
63005;SDS011;53704;52.532;6.426;2023-04-29T12:51:48;4.78;;;3.90;;
63005;SDS011;53704;52.532;6.426;2023-04-29T12:54:13;7.80;;;3.80;;
63005;SDS011;53704;52.532;6.426;2023-04-29T12:56:39;6.13;;;3.30;;
63005;SDS011;53704;52.532;6.426;2023-04-29T12:59:05;8.10;;;3.83;;
63005;SDS011;53704;52.532;6.426;2023-04-29T13:01:34;6.20;;;4.07;;
63005;SDS011;53704;52.532;6.426;2023-04-29T13:04:00;3.20;;;2.90;;
63005;SDS011;53704;52.532;6.426;2023-04-29T13:06:26;4.35;;;2.70;;
63005;SDS011;53704;52.532;6.426;2023-04-29T13:08:51;3.45;;;2.92;;
63005;SDS011;53704;52.532;6.426;2023-04-29T13:11:17;4.25;;;2.92;;
63005;SDS011;53704;52.532;6.426;2023-04-29T13:13:43;3.25;;;2.33;;
63005;SDS011;53704;52.532;6.426;2023-04-29T13:16:08;6.47;;;2.63;;
63005;SDS011;53704;52.532;6.426;2023-04-29T13:18:34;6.85;;;3.40;;
63005;SDS011;53704;52.532;6.426;2023-04-29T13:21:00;3.55;;;3.35;;
63005;SDS011;53704;52.532;6.426;2023-04-29T13:23:26;6.18;;;3.67;;
63005;SDS011;53704;52.532;6.426;2023-04-29T13:25:51;4.75;;;3.28;;
63005;SDS011;53704;52.532;6.426;2023-04-29T13:28:17;5.47;;;4.03;;
63005;SDS011;53704;52.532;6.426;2023-04-29T13:30:42;9.52;;;4.03;;
63005;SDS011;53704;52.532;6.426;2023-04-29T13:33:08;4.05;;;3.53;;
63005;SDS011;53704;52.532;6.426;2023-04-29T13:35:33;3.80;;;3.40;;
63005;SDS011;53704;52.532;6.426;2023-04-29T13:38:00;4.70;;;3.67;;
63005;SDS011;53704;52.532;6.426;2023-04-29T13:40:26;5.13;;;4.03;;
63005;SDS011;53704;52.532;6.426;2023-04-29T13:42:52;4.80;;;4.03;;
63005;SDS011;53704;52.532;6.426;2023-04-29T13:45:17;10.85;;;3.63;;
63005;SDS011;53704;52.532;6.426;2023-04-29T13:47:43;5.75;;;4.40;;
63005;SDS011;53704;52.532;6.426;2023-04-29T13:50:08;11.00;;;4.32;;
63005;SDS011;53704;52.532;6.426;2023-04-29T13:52:34;7.63;;;4.28;;
63005;SDS011;53704;52.532;6.426;2023-04-29T13:54:59;4.47;;;4.05;;
63005;SDS011;53704;52.532;6.426;2023-04-29T13:57:26;12.95;;;4.15;;
63005;SDS011;53704;52.532;6.426;2023-04-29T13:59:51;5.05;;;3.72;;
63005;SDS011;53704;52.532;6.426;2023-04-29T14:02:19;7.55;;;4.35;;
63005;SDS011;53704;52.532;6.426;2023-04-29T14:04:45;5.05;;;3.15;;
63005;SDS011;53704;52.532;6.426;2023-04-29T14:07:10;10.02;;;3.90;;
63005;SDS011;53704;52.532;6.426;2023-04-29T14:09:36;9.50;;;3.88;;
63005;SDS011;53704;52.532;6.426;2023-04-29T14:12:01;5.40;;;3.38;;
63005;SDS011;53704;52.532;6.426;2023-04-29T14:14:26;5.70;;;3.13;;
63005;SDS011;53704;52.532;6.426;2023-04-29T14:16:52;9.05;;;2.83;;
63005;SDS011;53704;52.532;6.426;2023-04-29T14:19:17;5.72;;;3.95;;
63005;SDS011;53704;52.532;6.426;2023-04-29T14:21:43;3.38;;;2.95;;
63005;SDS011;53704;52.532;6.426;2023-04-29T14:24:08;2.90;;;2.50;;
63005;SDS011;53704;52.532;6.426;2023-04-29T14:26:34;7.30;;;2.58;;
63005;SDS011;53704;52.532;6.426;2023-04-29T14:29:00;4.32;;;2.80;;
63005;SDS011;53704;52.532;6.426;2023-04-29T14:31:26;3.65;;;2.42;;
63005;SDS011;53704;52.532;6.426;2023-04-29T14:33:53;6.50;;;2.70;;
63005;SDS011;53704;52.532;6.426;2023-04-29T14:36:19;5.88;;;2.90;;
63005;SDS011;53704;52.532;6.426;2023-04-29T14:38:45;5.97;;;3.17;;
63005;SDS011;53704;52.532;6.426;2023-04-29T14:41:10;4.43;;;2.40;;
63005;SDS011;53704;52.532;6.426;2023-04-29T14:43:36;3.35;;;2.50;;
63005;SDS011;53704;52.532;6.426;2023-04-29T14:46:01;3.30;;;2.60;;
63005;SDS011;53704;52.532;6.426;2023-04-29T14:48:27;2.53;;;2.28;;
63005;SDS011;53704;52.532;6.426;2023-04-29T14:50:53;2.22;;;1.95;;
63005;SDS011;53704;52.532;6.426;2023-04-29T14:53:19;5.38;;;2.55;;
63005;SDS011;53704;52.532;6.426;2023-04-29T14:55:45;4.93;;;2.53;;